Time;durP1;ratioP1;P1;durP2;ratioP2;P2;SDS_P1;SDS_P2;PMS_P1;PMS_P2;Temp;Humidity;BMP_temperature;BMP_pressure;BME280_temperature;BME280_humidity;BME280_pressure;Samples;Min_cycle;Max_cycle;Signal;HPM_P1;HPM_P2
2020/12/01 00:02:22;;;;;;;34.78;6.47;;;8.20;99.90;;;;;;5065560;28;20028;-40
2020/12/01 00:04:47;;;;;;;48.55;6.38;;;8.20;99.90;;;;;;5073672;28;20032;-40
2020/12/01 00:07:13;;;;;;;42.95;7.63;;;8.20;99.90;;;;;;5089685;28;20028;-40
2020/12/01 00:09:38;;;;;;;34.00;5.38;;;8.20;99.90;;;;;;5090799;28;20451;-40
2020/12/01 00:12:04;;;;;;;36.40;5.18;;;8.10;99.90;;;;;;5071225;28;20049;-38
2020/12/01 00:14:30;;;;;;;32.53;5.90;;;8.30;99.90;;;;;;5064953;28;20039;-38
2020/12/01 00:16:55;;;;;;;31.42;5.78;;;8.30;99.90;;;;;;5079182;28;20457;-40
2020/12/01 00:19:21;;;;;;;36.65;6.60;;;8.30;99.90;;;;;;5083608;28;20064;-39
2020/12/01 00:21:47;;;;;;;28.98;5.32;;;8.40;99.90;;;;;;5089734;28;20370;-39
2020/12/01 00:24:13;;;;;;;35.55;6.18;;;8.40;99.90;;;;;;5084535;28;20028;-39
2020/12/01 00:26:39;;;;;;;32.83;5.45;;;8.40;99.90;;;;;;5070493;28;20472;-40
2020/12/01 00:29:05;;;;;;;28.83;6.78;;;8.40;99.90;;;;;;5070887;28;20036;-46
2020/12/01 00:31:37;;;;;;;31.40;6.43;;;8.30;99.90;;;;;;5091462;28;20434;-38
2020/12/01 00:34:03;;;;;;;;;;;8.30;99.90;;;;;;5087393;28;20036;-40
2020/12/01 00:36:29;;;;;;;34.80;4.97;;;8.30;99.90;;;;;;5088966;28;19908;-39
2020/12/01 00:38:54;;;;;;;30.95;4.15;;;8.40;99.90;;;;;;5086195;28;20389;-39
2020/12/01 00:41:20;;;;;;;31.92;5.95;;;8.30;99.90;;;;;;5089529;28;20024;-43
2020/12/01 00:43:45;;;;;;;31.10;4.88;;;8.40;99.90;;;;;;5087918;28;20073;-39
2020/12/01 00:46:11;;;;;;;27.63;5.22;;;8.30;99.90;;;;;;5069381;28;20043;-39
2020/12/01 00:48:36;;;;;;;25.95;4.85;;;8.30;99.90;;;;;;5088748;28;20468;-39
2020/12/01 00:51:02;;;;;;;40.65;5.30;;;8.30;99.90;;;;;;5090599;28;20028;-39
2020/12/01 00:53:28;;;;;;;38.90;6.80;;;8.40;99.90;;;;;;5081925;28;20059;-39
2020/12/01 00:55:59;;;;;;;26.52;5.28;;;8.40;99.90;;;;;;5082681;28;20037;-44
2020/12/01 00:58:25;;;;;;;43.30;7.03;;;8.40;99.90;;;;;;5088395;28;20043;-40
2020/12/01 01:00:50;;;;;;;24.15;4.80;;;8.40;99.90;;;;;;5072879;28;20028;-43
2020/12/01 01:03:16;;;;;;;30.52;4.22;;;8.40;99.90;;;;;;5064511;28;20477;-39
2020/12/01 01:05:42;;;;;;;27.73;4.28;;;8.40;99.90;;;;;;5089450;28;20043;-38
2020/12/01 01:08:08;;;;;;;29.27;5.97;;;8.40;99.90;;;;;;5070790;28;20036;-43
2020/12/01 01:10:34;;;;;;;19.48;3.85;;;8.40;99.90;;;;;;5089991;28;20476;-39
2020/12/01 01:13:01;;;;;;;34.00;6.97;;;8.40;99.90;;;;;;5091090;28;20498;-39
2020/12/01 01:15:31;;;;;;;34.65;6.45;;;8.20;99.90;;;;;;5090168;28;20107;-40
2020/12/01 01:17:57;;;;;;;34.50;5.57;;;8.00;99.90;;;;;;5086449;28;20047;-40
2020/12/01 01:20:23;;;;;;;22.65;4.40;;;7.90;99.90;;;;;;5087103;28;20153;-38
2020/12/01 01:22:49;;;;;;;33.85;5.55;;;7.80;99.90;;;;;;5088755;28;20107;-39
2020/12/01 01:25:15;;;;;;;26.52;3.53;;;7.80;99.90;;;;;;5073940;28;20487;-41
2020/12/01 01:27:41;;;;;;;26.00;4.32;;;7.70;99.90;;;;;;5080295;28;20036;-39
2020/12/01 01:30:07;;;;;;;21.33;3.40;;;7.70;99.90;;;;;;5089023;28;20039;-39
2020/12/01 01:32:33;;;;;;;25.80;5.57;;;7.70;99.90;;;;;;5065344;28;20032;-40
2020/12/01 01:34:59;;;;;;;31.23;4.82;;;7.70;99.90;;;;;;5091982;28;20076;-42
2020/12/01 01:37:25;;;;;;;19.95;3.55;;;7.80;99.90;;;;;;5069792;28;20531;-40
2020/12/01 01:39:51;;;;;;;22.23;3.42;;;7.80;99.90;;;;;;5090030;28;20036;-40
2020/12/01 01:42:17;;;;;;;23.83;4.53;;;8.00;99.90;;;;;;5070702;28;20106;-39
2020/12/01 01:44:42;;;;;;;18.75;3.55;;;8.10;99.90;;;;;;5071831;28;20419;-41
2020/12/01 01:47:23;;;;;;;24.73;3.78;;;8.00;99.90;;;;;;5088286;28;20020;-41
2020/12/01 01:49:55;;;;;;;26.87;4.70;;;7.90;99.90;;;;;;5091852;28;20040;-41
2020/12/01 01:52:27;;;;;;;25.85;5.68;;;8.00;99.90;;;;;;5090401;28;20032;-40
2020/12/01 01:54:55;;;;;;;;;;;8.00;99.90;;;;;;5095009;28;20059;-39
2020/12/01 01:57:21;;;;;;;18.10;3.03;;;8.10;99.90;;;;;;5084936;28;19916;-40
2020/12/01 01:59:49;;;;;;;25.88;4.70;;;7.90;99.90;;;;;;5093571;28;20028;-39
2020/12/01 02:02:14;;;;;;;36.15;5.15;;;7.50;99.90;;;;;;5086067;28;20069;-38
2020/12/01 02:04:41;;;;;;;30.67;5.80;;;7.50;99.90;;;;;;5090619;28;20056;-40
2020/12/01 02:07:07;;;;;;;19.30;3.22;;;7.60;99.90;;;;;;5084486;28;20442;-41
2020/12/01 02:09:54;;;;;;;22.98;3.60;;;7.50;99.90;;;;;;5083775;28;20031;-37
2020/12/01 02:12:20;;;;;;;23.25;4.25;;;7.40;99.90;;;;;;5070515;28;20072;-43
2020/12/01 02:14:57;;;;;;;24.77;4.22;;;7.40;99.90;;;;;;5094363;28;20032;-38
2020/12/01 02:17:34;;;;;;;34.72;4.03;;;7.30;99.90;;;;;;5068148;28;20032;-39
2020/12/01 02:20:08;;;;;;;18.35;2.88;;;7.10;99.90;;;;;;5071951;28;20032;-38
2020/12/01 02:22:33;;;;;;;24.67;3.72;;;7.10;99.90;;;;;;5088851;28;20057;-38
2020/12/01 02:24:59;;;;;;;43.05;6.55;;;7.10;99.90;;;;;;5092866;28;20035;-39
2020/12/01 02:27:26;;;;;;;34.20;4.63;;;7.20;99.90;;;;;;5086361;28;20112;-39
2020/12/01 02:29:56;;;;;;;29.48;4.78;;;7.30;99.90;;;;;;5089329;28;20036;-39
2020/12/01 02:32:24;;;;;;;27.58;5.15;;;7.40;99.90;;;;;;5087058;28;20074;-38
2020/12/01 02:34:51;;;;;;;21.27;3.15;;;7.50;99.90;;;;;;5091470;28;20032;-40
2020/12/01 02:37:22;;;;;;;32.38;4.35;;;7.50;99.90;;;;;;5086931;28;20050;-39
2020/12/01 02:39:48;;;;;;;32.45;5.95;;;7.60;99.90;;;;;;5085970;28;20028;-38
2020/12/01 02:42:20;;;;;;;15.45;2.72;;;7.70;99.90;;;;;;5092681;28;20024;-38
2020/12/01 02:44:46;;;;;;;30.30;4.72;;;7.70;99.90;;;;;;5092318;28;20412;-38
2020/12/01 02:47:11;;;;;;;26.02;4.53;;;7.70;99.90;;;;;;5082909;28;20028;-40
2020/12/01 02:49:37;;;;;;;33.15;4.93;;;7.70;99.90;;;;;;5074220;28;20024;-38
2020/12/01 02:52:04;;;;;;;32.47;5.50;;;7.80;99.90;;;;;;5076678;28;20103;-39
2020/12/01 02:54:30;;;;;;;52.22;5.93;;;7.80;99.90;;;;;;5091709;28;20145;-40
2020/12/01 02:56:56;;;;;;;31.63;4.47;;;8.00;99.90;;;;;;5084816;28;20131;-39
2020/12/01 02:59:21;;;;;;;36.47;7.35;;;8.00;99.90;;;;;;5092036;28;20044;-39
2020/12/01 03:01:47;;;;;;;29.25;6.05;;;8.10;99.90;;;;;;5079351;28;20044;-40
2020/12/01 03:04:13;;;;;;;44.13;8.07;;;8.10;99.90;;;;;;5092188;28;20664;-40
2020/12/01 03:06:45;;;;;;;48.10;7.28;;;8.20;99.90;;;;;;5080677;28;20047;-40
2020/12/01 03:09:16;;;;;;;37.50;6.25;;;8.10;99.90;;;;;;5092508;28;20038;-39
2020/12/01 03:11:41;;;;;;;53.70;6.47;;;7.90;99.90;;;;;;5087977;28;20028;-39
2020/12/01 03:14:07;;;;;;;48.03;10.00;;;7.90;99.90;;;;;;5087929;28;20039;-39
2020/12/01 03:16:33;;;;;;;32.55;5.57;;;7.90;99.90;;;;;;5083609;28;20526;-38
2020/12/01 03:18:58;;;;;;;41.33;5.68;;;7.80;99.90;;;;;;5090149;28;20130;-37
2020/12/01 03:21:24;;;;;;;38.05;7.10;;;7.50;99.90;;;;;;5084463;28;20032;-40
2020/12/01 03:23:50;;;;;;;35.00;4.43;;;7.40;99.90;;;;;;5085793;28;20396;-39
2020/12/01 03:26:17;;;;;;;41.53;7.70;;;7.40;99.90;;;;;;5061814;28;20138;-39
2020/12/01 03:28:44;;;;;;;45.60;6.90;;;7.50;99.90;;;;;;5091973;28;20058;-40
2020/12/01 03:31:11;;;;;;;38.42;7.55;;;7.70;99.90;;;;;;5064172;28;20044;-39
2020/12/01 03:33:37;;;;;;;40.35;6.30;;;7.70;99.90;;;;;;5090646;28;20101;-39
2020/12/01 03:36:03;;;;;;;32.97;5.68;;;7.50;99.90;;;;;;5083918;28;20286;-41
2020/12/01 03:38:28;;;;;;;26.65;4.88;;;7.60;99.90;;;;;;5092141;28;20035;-38
2020/12/01 03:40:54;;;;;;;31.20;5.43;;;7.60;99.90;;;;;;5064811;28;20052;-39
2020/12/01 03:43:19;;;;;;;46.55;7.70;;;7.70;99.90;;;;;;5078277;28;20099;-38
2020/12/01 03:45:45;;;;;;;45.38;6.65;;;7.80;99.90;;;;;;5086820;28;20757;-37
2020/12/01 03:48:11;;;;;;;47.75;7.38;;;7.90;99.90;;;;;;5065601;28;20044;-40
2020/12/01 03:50:37;;;;;;;40.28;6.10;;;8.00;99.90;;;;;;5085063;28;20054;-40
2020/12/01 03:53:03;;;;;;;47.50;7.90;;;8.10;99.90;;;;;;5067268;28;20031;-39
2020/12/01 03:55:29;;;;;;;37.72;6.47;;;8.10;99.90;;;;;;5089758;28;20055;-38
2020/12/01 03:57:55;;;;;;;37.53;7.32;;;8.10;99.90;;;;;;5088244;28;20080;-40
2020/12/01 04:00:24;;;;;;;44.00;7.55;;;8.20;99.90;;;;;;5086873;28;20477;-40
2020/12/01 04:02:50;;;;;;;34.22;7.28;;;8.20;99.90;;;;;;5060380;28;20058;-43
2020/12/01 04:05:17;;;;;;;39.40;6.10;;;8.20;99.90;;;;;;5089224;28;20035;-38
2020/12/01 04:07:44;;;;;;;50.58;8.15;;;8.20;99.90;;;;;;5091330;28;20553;-39
2020/12/01 04:10:13;;;;;;;25.83;4.57;;;8.20;99.90;;;;;;5071770;28;20040;-39
2020/12/01 04:12:39;;;;;;;48.20;7.60;;;8.10;99.90;;;;;;5078653;28;20036;-39
2020/12/01 04:15:04;;;;;;;37.92;7.45;;;8.10;99.90;;;;;;5078510;28;20035;-39
2020/12/01 04:17:30;;;;;;;41.60;8.15;;;8.20;99.90;;;;;;5089262;28;20040;-40
2020/12/01 04:19:56;;;;;;;42.50;6.05;;;8.30;99.90;;;;;;5085249;28;20028;-38
2020/12/01 04:22:22;;;;;;;43.45;7.95;;;8.30;99.90;;;;;;5080203;28;20032;-38
2020/12/01 04:24:47;;;;;;;43.13;8.35;;;8.30;99.90;;;;;;5090356;28;20024;-42
2020/12/01 04:27:14;;;;;;;33.70;6.97;;;8.30;99.90;;;;;;5085528;28;20111;-40
2020/12/01 04:29:41;;;;;;;42.55;6.90;;;8.40;99.90;;;;;;5079949;28;20103;-40
2020/12/01 04:32:07;;;;;;;42.75;8.27;;;8.40;99.90;;;;;;5088120;28;20057;-37
2020/12/01 04:34:33;;;;;;;52.38;7.82;;;8.40;99.90;;;;;;5084834;28;20048;-38
2020/12/01 04:37:00;;;;;;;48.95;8.45;;;8.40;99.90;;;;;;5069252;28;20499;-41
2020/12/01 04:39:26;;;;;;;41.65;7.53;;;8.40;99.90;;;;;;5088552;28;20047;-39
2020/12/01 04:41:52;;;;;;;43.00;7.68;;;8.40;99.90;;;;;;5085031;28;20485;-41
2020/12/01 04:44:33;;;;;;;61.05;9.00;;;8.30;99.90;;;;;;5081731;28;20036;-39
2020/12/01 04:47:02;;;;;;;44.45;8.75;;;8.40;99.90;;;;;;5076166;28;20377;-40
2020/12/01 04:49:33;;;;;;;42.72;8.23;;;8.40;99.90;;;;;;5063909;28;20470;-38
2020/12/01 04:52:01;;;;;;;37.08;8.48;;;8.40;99.90;;;;;;5088985;28;20111;-41
2020/12/01 04:54:54;;;;;;;62.88;8.20;;;8.40;99.90;;;;;;5089121;28;20592;-39
2020/12/01 04:57:57;;;;;;;50.55;8.52;;;8.40;99.90;;;;;;5078254;28;20044;-39
2020/12/01 05:00:47;;;;;;;43.28;9.10;;;8.40;99.90;;;;;;5066015;28;20032;-39
2020/12/01 05:03:50;;;;;;;34.85;6.55;;;8.50;99.90;;;;;;5073430;28;20020;-40
2020/12/01 05:09:41;;;;;;;27.70;5.57;;;8.40;99.90;;;;;;5068713;28;20565;-39
2020/12/01 05:12:27;;;;;;;50.72;8.68;;;8.40;99.90;;;;;;5071959;28;20040;-40
2020/12/01 05:15:24;;;;;;;37.47;8.65;;;8.40;99.90;;;;;;5070040;28;20029;-39
2020/12/01 05:17:55;;;;;;;53.78;8.73;;;8.40;99.90;;;;;;5068318;28;20040;-39
2020/12/01 05:20:21;;;;;;;35.08;6.65;;;8.40;99.90;;;;;;5069448;28;20039;-39
2020/12/01 05:22:50;;;;;;;45.85;7.05;;;8.40;99.90;;;;;;5051977;28;20060;-40
2020/12/01 05:25:28;;;;;;;33.65;8.45;;;8.50;99.90;;;;;;5073960;28;20021;-39
2020/12/01 05:28:12;;;;;;;37.40;7.18;;;8.60;99.90;;;;;;5072995;28;20528;-40
2020/12/01 05:30:40;;;;;;;43.80;7.82;;;8.60;99.90;;;;;;5064883;28;20024;-40
2020/12/01 05:33:21;;;;;;;53.00;8.32;;;8.60;99.90;;;;;;5069655;28;20090;-38
2020/12/01 05:36:14;;;;;;;35.70;7.03;;;8.60;99.90;;;;;;5057787;28;20071;-39
2020/12/01 05:38:40;;;;;;;31.02;6.13;;;8.70;99.90;;;;;;5067214;28;20667;-39
2020/12/01 05:41:23;;;;;;;45.20;7.13;;;8.70;99.90;;;;;;5073085;28;20110;-43
2020/12/01 05:44:01;;;;;;;38.42;6.82;;;8.80;99.90;;;;;;5081684;28;20109;-39
2020/12/01 05:46:42;;;;;;;47.35;6.53;;;8.70;99.90;;;;;;5053063;28;20046;-39
2020/12/01 05:49:42;;;;;;;43.70;8.02;;;8.60;99.90;;;;;;5071637;28;20041;-39
2020/12/01 05:52:30;;;;;;;44.80;7.85;;;8.60;99.90;;;;;;5067079;28;20441;-42
2020/12/01 05:55:17;;;;;;;39.22;8.40;;;8.70;99.90;;;;;;5057953;28;20454;-40
2020/12/01 05:57:43;;;;;;;56.88;9.15;;;8.70;99.90;;;;;;5084773;28;20060;-38
2020/12/01 06:00:23;;;;;;;59.55;9.63;;;8.70;99.90;;;;;;5093315;28;20032;-42
2020/12/01 06:03:17;;;;;;;32.33;5.97;;;8.70;99.90;;;;;;5088599;28;20074;-42
2020/12/01 06:05:46;;;;;;;42.30;7.68;;;8.60;99.90;;;;;;5091106;28;20028;-39
2020/12/01 06:08:56;;;;;;;38.65;6.65;;;8.60;99.90;;;;;;5092114;28;20412;-39
2020/12/01 06:11:34;;;;;;;40.55;7.45;;;8.60;99.90;;;;;;4976935;28;20043;-39
2020/12/01 06:14:21;;;;;;;40.15;6.32;;;8.60;99.90;;;;;;4983762;28;20599;-43
2020/12/01 06:17:02;;;;;;;37.17;6.75;;;8.50;99.90;;;;;;4931709;29;20036;-43
2020/12/01 06:19:47;;;;;;;48.47;8.10;;;8.50;99.90;;;;;;4935928;29;20130;-40
2020/12/01 06:22:19;;;;;;;35.13;5.63;;;8.50;99.90;;;;;;4927910;29;20065;-43
2020/12/01 06:24:56;;;;;;;45.10;9.38;;;8.50;99.90;;;;;;4932444;29;20114;-40
2020/12/01 06:27:39;;;;;;;42.90;7.55;;;8.50;99.90;;;;;;4931071;29;20059;-39
2020/12/01 06:30:24;;;;;;;44.15;6.05;;;8.60;99.90;;;;;;4926030;29;20122;-40
2020/12/01 06:33:19;;;;;;;34.83;6.53;;;8.60;99.90;;;;;;4910995;29;20072;-40
2020/12/01 06:35:59;;;;;;;37.13;7.03;;;8.60;99.90;;;;;;4928466;29;20095;-43
2020/12/01 06:39:04;;;;;;;23.92;4.93;;;8.50;99.90;;;;;;4932266;29;20120;-43
2020/12/01 06:41:37;;;;;;;30.25;6.25;;;8.20;99.90;;;;;;4929340;29;20043;-41
2020/12/01 06:44:12;;;;;;;33.28;5.95;;;8.20;99.90;;;;;;4917871;29;20397;-43
2020/12/01 06:46:50;;;;;;;40.17;6.43;;;8.20;99.90;;;;;;4925430;29;20040;-39
2020/12/01 06:49:26;;;;;;;37.95;6.68;;;8.30;99.90;;;;;;4986713;28;20417;-39
2020/12/01 06:51:57;;;;;;;39.25;6.53;;;8.30;99.90;;;;;;5015091;28;20053;-42
2020/12/01 06:54:23;;;;;;;41.83;7.55;;;8.30;99.90;;;;;;5058135;28;20036;-40
2020/12/01 06:57:06;;;;;;;41.95;6.95;;;8.40;99.90;;;;;;5067106;28;20036;-40
2020/12/01 06:59:32;;;;;;;33.28;7.43;;;8.50;99.90;;;;;;5062607;28;20369;-42
2020/12/01 07:02:27;;;;;;;39.13;7.32;;;8.50;99.90;;;;;;5067244;28;20016;-45
2020/12/01 07:05:11;;;;;;;50.25;8.00;;;8.60;99.90;;;;;;5064860;28;20695;-41
2020/12/01 07:07:40;;;;;;;35.63;6.47;;;8.60;99.90;;;;;;5058520;28;20016;-40
2020/12/01 07:10:29;;;;;;;40.60;8.55;;;8.60;99.90;;;;;;5045255;28;20470;-40
2020/12/01 07:13:31;;;;;;;41.17;7.25;;;8.60;99.90;;;;;;5065856;28;20033;-46
2020/12/01 07:16:07;;;;;;;28.85;4.72;;;8.70;99.90;;;;;;5071558;28;20025;-42
2020/12/01 07:18:35;;;;;;;46.60;6.95;;;8.50;99.90;;;;;;5054244;28;20049;-40
2020/12/01 07:21:22;;;;;;;32.70;6.55;;;8.50;99.90;;;;;;5062813;28;20028;-40
2020/12/01 07:24:18;;;;;;;40.78;6.43;;;8.40;99.90;;;;;;5068113;28;20071;-42
2020/12/01 07:27:08;;;;;;;42.42;6.35;;;8.50;99.90;;;;;;5009064;28;20078;-41
2020/12/01 07:29:42;;;;;;;30.35;4.15;;;8.50;99.90;;;;;;5007680;28;20038;-39
2020/12/01 07:32:19;;;;;;;29.95;5.55;;;8.50;99.90;;;;;;5005577;28;20046;-39
2020/12/01 07:34:44;;;;;;;41.58;7.20;;;8.50;99.90;;;;;;5008553;28;20025;-38
2020/12/01 07:37:28;;;;;;;46.97;6.32;;;8.60;99.90;;;;;;5002555;28;20052;-37
2020/12/01 07:39:57;;;;;;;38.08;6.97;;;8.40;99.90;;;;;;5007179;28;20041;-39
2020/12/01 07:42:26;;;;;;;39.15;6.60;;;8.30;99.90;;;;;;5003585;28;20046;-41
2020/12/01 07:44:52;;;;;;;57.60;9.02;;;8.20;99.90;;;;;;5002939;28;20081;-37
2020/12/01 07:47:21;;;;;;;50.88;8.00;;;8.30;99.90;;;;;;5004198;28;20510;-38
2020/12/01 07:50:02;;;;;;;51.35;7.88;;;8.30;99.90;;;;;;5003578;28;20044;-40
2020/12/01 07:55:55;;;;;;;53.03;6.95;;;8.00;99.90;;;;;;5008258;28;20045;-36
2020/12/01 07:58:26;;;;;;;44.15;7.07;;;8.00;99.90;;;;;;5024643;28;20060;-41
2020/12/01 08:00:53;;;;;;;44.80;6.80;;;7.90;99.90;;;;;;4997018;28;20526;-38
2020/12/01 08:03:38;;;;;;;37.53;8.88;;;7.90;99.90;;;;;;5029379;28;20396;-39
2020/12/01 08:06:11;;;;;;;48.80;8.68;;;8.00;99.90;;;;;;5073319;28;20396;-42
2020/12/01 08:08:40;;;;;;;51.65;8.18;;;8.10;99.90;;;;;;5072134;28;20036;-40
2020/12/01 08:11:08;;;;;;;36.60;7.43;;;8.20;99.90;;;;;;5070913;28;20039;-42
2020/12/01 08:13:37;;;;;;;40.58;7.50;;;8.10;99.90;;;;;;5074895;28;20032;-40
2020/12/01 08:16:15;;;;;;;41.20;7.45;;;8.10;99.90;;;;;;5082744;28;20162;-40
2020/12/01 08:18:42;;;;;;;41.50;9.23;;;8.10;99.90;;;;;;5070857;28;20423;-40
2020/12/01 08:21:08;;;;;;;44.65;6.22;;;8.20;99.90;;;;;;5070197;28;20553;-41
2020/12/01 08:23:36;;;;;;;35.17;5.60;;;8.20;99.90;;;;;;5074389;28;20040;-38
2020/12/01 08:26:10;;;;;;;31.15;5.57;;;8.30;99.90;;;;;;5085119;28;20431;-38
2020/12/01 08:28:42;;;;;;;37.72;8.90;;;8.30;99.90;;;;;;5066306;28;20166;-39
2020/12/01 08:31:23;;;;;;;36.60;6.35;;;8.40;99.90;;;;;;5064529;28;20488;-38
2020/12/01 08:34:14;;;;;;;35.40;5.68;;;8.40;99.90;;;;;;5063247;28;20036;-40
2020/12/01 08:36:46;;;;;;;35.38;5.05;;;8.40;99.90;;;;;;5064298;28;20027;-38
2020/12/01 08:39:52;;;;;;;31.30;5.00;;;8.30;99.90;;;;;;5073367;28;20032;-42
2020/12/01 08:42:32;;;;;;;35.30;6.63;;;8.30;99.90;;;;;;5078008;28;20029;-39
2020/12/01 08:45:24;;;;;;;39.42;7.97;;;8.40;99.90;;;;;;5074258;28;20037;-40
2020/12/01 08:48:00;;;;;;;43.88;8.10;;;8.40;99.90;;;;;;5085075;28;20032;-43
2020/12/01 08:50:37;;;;;;;57.55;6.82;;;8.50;99.90;;;;;;5064757;28;20120;-40
2020/12/01 08:53:29;;;;;;;34.75;5.15;;;8.50;99.90;;;;;;5080725;28;20093;-37
2020/12/01 08:55:58;;;;;;;32.03;6.43;;;8.60;99.90;;;;;;5074192;28;20048;-39
2020/12/01 08:58:26;;;;;;;34.78;5.63;;;8.70;99.90;;;;;;5097121;28;20040;-40
2020/12/01 09:00:57;;;;;;;35.42;5.85;;;8.70;99.90;;;;;;5092543;28;20028;-38
2020/12/01 09:03:23;;;;;;;38.75;6.43;;;8.60;99.90;;;;;;5093614;28;20442;-40
2020/12/01 09:05:50;;;;;;;35.67;5.22;;;8.70;99.90;;;;;;5091667;28;20020;-39
2020/12/01 09:11:04;;;;;;;;;;;8.80;99.90;;;;;;5081698;28;20886;-41
2020/12/01 09:13:33;;;;;;;29.05;5.18;;;8.80;99.90;;;;;;5072336;28;19909;-38
2020/12/01 09:24:16;;;;;;;27.67;5.85;;;8.80;99.90;;;;;;5076235;28;20103;-39
2020/12/01 09:26:42;;;;;;;34.45;6.20;;;8.70;99.90;;;;;;5076684;28;20027;-38
2020/12/01 09:29:07;;;;;;;31.50;5.68;;;8.70;99.90;;;;;;5086687;28;20028;-41
2020/12/01 09:31:38;;;;;;;46.08;5.68;;;8.80;99.90;;;;;;5087582;28;20024;-41
2020/12/01 09:34:07;;;;;;;36.47;6.00;;;8.80;99.90;;;;;;5066449;28;20399;-38
2020/12/01 09:36:32;;;;;;;32.10;4.57;;;8.90;99.90;;;;;;5080912;28;20272;-43
2020/12/01 09:38:58;;;;;;;24.67;7.05;;;8.90;99.90;;;;;;5077779;28;20040;-39
2020/12/01 09:41:25;;;;;;;31.17;4.68;;;8.90;99.90;;;;;;5088183;28;20040;-40
2020/12/01 09:46:31;;;;;;;27.40;5.63;;;9.10;99.90;;;;;;5080178;28;20029;-41
2020/12/01 09:48:56;;;;;;;27.77;4.05;;;9.10;99.90;;;;;;5062545;28;20055;-39
2020/12/01 09:51:22;;;;;;;31.40;4.47;;;9.00;99.90;;;;;;5086321;28;20385;-39
2020/12/01 10:09:24;;;;;;;27.33;5.72;;;9.00;99.90;;;;;;5077403;28;20085;-41
2020/12/01 10:36:35;;;;;;;33.55;5.95;;;9.30;99.90;;;;;;5079214;28;20028;-42
2020/12/01 10:39:02;;;;;;;33.63;5.55;;;9.40;99.90;;;;;;5077228;28;20036;-43
2020/12/01 10:41:30;;;;;;;38.45;5.78;;;9.40;99.90;;;;;;5076438;28;20559;-48
2020/12/01 10:43:56;;;;;;;42.97;6.60;;;9.40;99.90;;;;;;5076782;28;20075;-43
2020/12/01 10:46:21;;;;;;;42.92;7.85;;;9.40;99.90;;;;;;5074051;28;20420;-43
2020/12/01 10:48:47;;;;;;;38.50;6.75;;;9.50;99.90;;;;;;5080588;28;20063;-38
2020/12/01 10:51:13;;;;;;;41.80;6.38;;;9.60;99.90;;;;;;5079823;28;20104;-40
2020/12/01 10:53:39;;;;;;;31.45;7.13;;;9.80;99.90;;;;;;5074699;28;20489;-39
2020/12/01 10:56:05;;;;;;;34.05;4.22;;;9.80;99.90;;;;;;5075798;28;20055;-39
2020/12/01 10:58:30;;;;;;;27.52;7.13;;;9.50;99.90;;;;;;5076005;28;20527;-38
2020/12/01 11:00:56;;;;;;;36.38;5.70;;;9.40;99.90;;;;;;5072178;28;20055;-38
2020/12/01 11:03:21;;;;;;;35.03;5.22;;;9.40;99.90;;;;;;5074264;28;20025;-39
2020/12/01 11:05:47;;;;;;;26.55;4.07;;;9.40;99.90;;;;;;5072660;28;20040;-41
2020/12/01 11:08:13;;;;;;;29.98;6.20;;;9.20;99.90;;;;;;5079398;28;20140;-39
2020/12/01 11:10:40;;;;;;;37.00;4.80;;;9.20;99.90;;;;;;5075609;28;20365;-42
2020/12/01 11:13:08;;;;;;;26.38;4.47;;;9.30;99.90;;;;;;5074220;28;21140;-41
2020/12/01 11:15:33;;;;;;;27.27;4.93;;;9.40;99.90;;;;;;5073372;28;20033;-40
2020/12/01 11:17:59;;;;;;;27.02;4.35;;;9.40;99.90;;;;;;5077139;28;20051;-37
2020/12/01 11:20:25;;;;;;;34.10;4.38;;;9.60;99.90;;;;;;5071333;28;20028;-39
2020/12/01 11:22:52;;;;;;;39.92;6.25;;;9.80;99.90;;;;;;5076754;28;20040;-41
2020/12/01 11:25:20;;;;;;;33.17;5.30;;;9.90;99.90;;;;;;5045979;28;20032;-43
2020/12/01 11:27:46;;;;;;;38.90;6.25;;;9.70;99.90;;;;;;5069931;28;20089;-41
2020/12/01 11:30:13;;;;;;;30.52;4.82;;;9.60;99.90;;;;;;5075677;28;20032;-41
2020/12/01 11:32:39;;;;;;;36.33;5.80;;;9.60;99.90;;;;;;5076492;28;20419;-39
2020/12/01 11:35:06;;;;;;;27.13;4.43;;;9.60;99.90;;;;;;5075883;28;20043;-40
2020/12/01 11:37:32;;;;;;;31.48;4.78;;;9.60;99.90;;;;;;5073321;28;20029;-40
2020/12/01 11:39:57;;;;;;;35.30;5.68;;;9.70;99.90;;;;;;5075273;28;20036;-42
2020/12/01 11:42:24;;;;;;;37.72;6.07;;;9.70;99.90;;;;;;5075158;28;20730;-43
2020/12/01 11:44:50;;;;;;;27.02;6.25;;;9.70;99.90;;;;;;5073871;28;20031;-40
2020/12/01 11:50:23;;;;;;;35.13;5.20;;;9.80;99.90;;;;;;5073909;28;20073;-40
2020/12/01 11:52:49;;;;;;;29.90;5.90;;;9.80;99.90;;;;;;5062495;28;20384;-40
2020/12/01 11:55:16;;;;;;;34.22;5.07;;;9.80;99.90;;;;;;5080240;28;20460;-39
2020/12/01 11:57:41;;;;;;;36.25;5.43;;;9.90;99.90;;;;;;5072380;28;20105;-39
2020/12/01 12:00:09;;;;;;;26.30;5.38;;;9.80;99.90;;;;;;5078521;28;20040;-42
2020/12/01 12:02:37;;;;;;;34.47;5.45;;;9.70;99.90;;;;;;5076158;28;20032;-46
2020/12/01 12:05:05;;;;;;;33.42;5.30;;;9.60;99.90;;;;;;5060145;28;20035;-40
2020/12/01 12:07:33;;;;;;;29.42;5.20;;;9.70;99.90;;;;;;5056252;28;20034;-37
2020/12/01 15:26:35;;;;;;;41.17;4.97;;;8.60;99.90;;;;;;5076184;28;20104;-39
2020/12/01 15:29:02;;;;;;;30.92;4.70;;;8.60;99.90;;;;;;5052699;28;20557;-40
2020/12/01 15:31:29;;;;;;;30.15;5.15;;;8.60;99.90;;;;;;5056959;28;20044;-39
2020/12/01 15:33:56;;;;;;;33.90;5.63;;;8.60;99.90;;;;;;5044725;28;20040;-40
2020/12/01 15:36:28;;;;;;;33.72;5.38;;;8.50;99.90;;;;;;5058896;28;20107;-41
2020/12/01 15:38:54;;;;;;;36.70;5.40;;;8.50;99.90;;;;;;5069416;28;20449;-44
2020/12/01 15:41:21;;;;;;;49.53;5.32;;;8.60;99.90;;;;;;5050942;28;20136;-44
2020/12/01 15:44:00;;;;;;;32.72;5.72;;;8.70;99.90;;;;;;5068698;28;20056;-39
2020/12/01 15:46:37;;;;;;;39.00;6.20;;;8.80;99.90;;;;;;5063639;28;20028;-39
2020/12/01 15:49:05;;;;;;;44.60;6.22;;;8.90;99.90;;;;;;5052944;28;20047;-39
2020/12/01 15:51:44;;;;;;;41.53;6.57;;;8.90;99.90;;;;;;5067102;28;20044;-39
2020/12/01 15:54:28;;;;;;;35.47;7.32;;;8.80;99.90;;;;;;5064597;28;20021;-41
2020/12/01 15:57:17;;;;;;;40.05;5.80;;;8.90;99.90;;;;;;5050814;28;20055;-40
2020/12/01 16:00:09;;;;;;;48.17;6.63;;;8.90;99.90;;;;;;5020133;28;20049;-42
2020/12/01 16:02:52;;;;;;;27.33;4.55;;;8.90;99.90;;;;;;4997865;28;20557;-41
2020/12/01 16:05:44;;;;;;;46.90;7.82;;;8.80;99.90;;;;;;5005826;28;20344;-40
2020/12/01 16:08:43;;;;;;;32.88;6.28;;;8.60;99.90;;;;;;4992812;28;20042;-40
2020/12/01 16:11:21;;;;;;;31.15;5.22;;;8.30;99.90;;;;;;4982698;28;20048;-39
2020/12/01 16:14:08;;;;;;;44.13;7.68;;;8.20;99.90;;;;;;5000257;28;20052;-39
2020/12/01 16:16:38;;;;;;;47.13;7.32;;;8.20;99.90;;;;;;5017210;28;20470;-39
2020/12/01 16:19:21;;;;;;;48.03;7.63;;;8.20;99.90;;;;;;4991024;28;20481;-39
2020/12/01 16:21:54;;;;;;;37.22;6.85;;;8.20;99.90;;;;;;4994230;28;20029;-40
2020/12/01 16:24:28;;;;;;;53.80;9.35;;;8.10;99.90;;;;;;4979570;28;20039;-39
2020/12/01 16:27:05;;;;;;;30.70;7.53;;;8.10;99.90;;;;;;5008306;28;20066;-42
2020/12/01 16:29:49;;;;;;;37.00;5.93;;;8.10;99.90;;;;;;5012925;28;20085;-40
2020/12/01 16:32:20;;;;;;;48.65;6.65;;;8.10;99.90;;;;;;5007769;28;20466;-40
2020/12/01 16:34:47;;;;;;;49.05;6.28;;;8.20;99.90;;;;;;5024746;28;20068;-40
2020/12/01 16:37:34;;;;;;;54.35;7.72;;;8.10;99.90;;;;;;5046257;28;20040;-39
2020/12/01 16:40:09;;;;;;;53.03;7.55;;;8.20;99.90;;;;;;5055425;28;20045;-40
2020/12/01 16:42:57;;;;;;;42.67;8.02;;;8.30;99.90;;;;;;5065327;28;20037;-39
2020/12/01 16:45:50;;;;;;;46.72;6.57;;;8.30;99.90;;;;;;5052439;28;20107;-39
2020/12/01 16:48:41;;;;;;;38.15;7.65;;;8.30;99.90;;;;;;5069244;28;20068;-39
2020/12/01 16:51:34;;;;;;;39.92;6.32;;;8.30;99.90;;;;;;5066061;28;20108;-39
2020/12/01 16:54:22;;;;;;;39.47;6.40;;;8.30;99.90;;;;;;5039888;28;20038;-39
2020/12/01 16:57:18;;;;;;;47.28;5.90;;;8.30;99.90;;;;;;5067244;28;20391;-39
2020/12/01 17:00:15;;;;;;;37.42;6.47;;;8.30;99.90;;;;;;5065845;28;20045;-40
2020/12/01 17:02:50;;;;;;;34.13;6.38;;;8.30;99.90;;;;;;5070287;28;20021;-40
2020/12/01 17:05:44;;;;;;;46.58;7.60;;;8.30;99.90;;;;;;5070389;28;20033;-39
2020/12/01 17:08:11;;;;;;;41.38;6.43;;;8.30;99.90;;;;;;5073124;28;20032;-39
2020/12/01 17:10:40;;;;;;;35.67;6.57;;;8.40;99.90;;;;;;5062107;28;20492;-39
2020/12/01 17:13:44;;;;;;;44.00;6.90;;;8.40;99.90;;;;;;5062156;28;20044;-40
2020/12/01 17:16:46;;;;;;;46.15;6.45;;;8.50;99.90;;;;;;5071742;28;20111;-35
2020/12/01 17:19:14;;;;;;;38.47;8.07;;;8.50;99.90;;;;;;5064220;28;20044;-42
2020/12/01 17:21:42;;;;;;;36.72;7.60;;;8.50;99.90;;;;;;5060080;28;20025;-39
2020/12/01 17:24:18;;;;;;;44.72;7.90;;;8.60;99.90;;;;;;5080763;28;20028;-39
2020/12/01 17:26:49;;;;;;;46.60;6.15;;;8.60;99.90;;;;;;5075920;28;20492;-39
2020/12/01 17:29:24;;;;;;;47.58;7.45;;;8.60;99.90;;;;;;5049323;28;20146;-40
2020/12/01 17:31:53;;;;;;;59.63;4.43;;;8.50;99.90;;;;;;5062819;28;20068;-39
2020/12/01 17:34:41;;;;;;;18.90;3.78;;;8.40;99.90;;;;;;5070738;28;20403;-39
2020/12/01 17:37:32;;;;;;;20.65;4.82;;;8.20;99.90;;;;;;5066769;28;20143;-39